createdAt,value
2017-11-23T00:01:19.574Z,96.20
2017-11-23T00:03:47.703Z,96.30
2017-11-23T00:06:15.859Z,96.30
2017-11-23T00:08:43.995Z,96.40
2017-11-23T00:11:12.148Z,96.40
2017-11-23T00:13:40.278Z,96.30
2017-11-23T00:16:08.430Z,96.30
2017-11-23T00:18:36.562Z,96.30
2017-11-23T00:21:04.728Z,96.20
2017-11-23T00:23:32.869Z,96.20
2017-11-23T00:26:01.022Z,96.10
2017-11-23T00:28:29.158Z,96.10
2017-11-23T00:30:57.322Z,96.00
2017-11-23T00:33:25.455Z,95.80
2017-11-23T00:35:53.591Z,95.90
2017-11-23T00:38:22.514Z,95.90
2017-11-23T00:40:50.648Z,95.90
2017-11-23T00:43:19.567Z,96.00
2017-11-23T00:45:47.695Z,95.90
2017-11-23T00:48:15.851Z,95.80
2017-11-23T00:50:43.979Z,95.90
2017-11-23T00:53:12.138Z,96.00
2017-11-23T00:55:40.266Z,95.90
2017-11-23T00:58:08.427Z,96.30
2017-11-23T01:00:36.559Z,95.80
2017-11-23T01:03:04.718Z,95.70
2017-11-23T01:05:32.843Z,95.60
2017-11-23T01:08:01.001Z,95.60
2017-11-23T01:10:29.135Z,95.80
2017-11-23T01:12:57.294Z,95.70
2017-11-23T01:15:25.426Z,95.60
2017-11-23T01:17:53.578Z,95.60
2017-11-23T01:20:21.710Z,95.60
2017-11-23T01:22:49.876Z,95.50
2017-11-23T01:25:18.020Z,95.70
2017-11-23T01:27:46.187Z,95.20
2017-11-23T01:30:14.320Z,95.30
2017-11-23T01:32:42.480Z,95.20
2017-11-23T01:35:10.612Z,95.30
2017-11-23T01:37:38.772Z,95.20
2017-11-23T01:40:06.904Z,95.20
2017-11-23T01:42:35.061Z,95.20
2017-11-23T01:45:03.196Z,95.30
2017-11-23T01:47:31.359Z,95.30
2017-11-23T01:49:59.495Z,95.10
2017-11-23T01:52:27.655Z,94.90
2017-11-23T01:54:55.810Z,94.90
2017-11-23T01:57:23.939Z,94.80
2017-11-23T01:59:52.948Z,94.60
2017-11-23T02:02:21.083Z,94.60
2017-11-23T02:04:49.244Z,94.70
2017-11-23T02:07:17.379Z,94.70
2017-11-23T02:09:45.539Z,94.30
2017-11-23T02:12:14.428Z,94.10
2017-11-23T02:14:42.586Z,94.40
2017-11-23T02:17:11.489Z,94.30
2017-11-23T02:19:39.642Z,94.30
2017-11-23T02:22:07.778Z,93.90
2017-11-23T02:24:35.934Z,94.20
2017-11-23T02:27:04.067Z,94.10
2017-11-23T02:29:32.221Z,93.70
2017-11-23T02:32:00.347Z,93.80
2017-11-23T02:34:28.506Z,93.80
2017-11-23T02:36:57.406Z,93.70
2017-11-23T02:39:25.570Z,93.60
2017-11-23T02:41:53.700Z,93.70
2017-11-23T02:44:21.844Z,93.50
2017-11-23T02:46:50.018Z,93.80
2017-11-23T02:49:18.151Z,93.50
2017-11-23T02:51:46.307Z,93.60
2017-11-23T02:54:14.435Z,93.70
2017-11-23T02:56:42.635Z,93.80
2017-11-23T02:59:10.762Z,93.80
2017-11-23T03:01:38.910Z,93.70
2017-11-23T03:04:07.043Z,93.80
2017-11-23T03:06:35.198Z,93.90
2017-11-23T03:09:03.332Z,93.80
2017-11-23T03:11:31.482Z,93.90
2017-11-23T03:13:59.619Z,94.00
2017-11-23T03:16:27.786Z,94.10
2017-11-23T03:18:55.917Z,94.00
2017-11-23T03:21:24.069Z,94.00
2017-11-23T03:23:52.205Z,94.10
2017-11-23T03:26:20.365Z,94.00
2017-11-23T03:28:49.255Z,94.00
2017-11-23T03:31:18.272Z,94.00
2017-11-23T03:33:46.398Z,94.20
2017-11-23T03:36:14.556Z,94.00
2017-11-23T03:38:42.684Z,93.90
2017-11-23T03:41:10.848Z,94.00
2017-11-23T03:43:38.980Z,94.10
2017-11-23T03:46:07.154Z,94.00
2017-11-23T03:48:35.300Z,93.70
2017-11-23T03:51:03.433Z,93.90
2017-11-23T03:53:31.583Z,94.00
2017-11-23T03:55:59.706Z,93.90
2017-11-23T03:58:27.862Z,93.90
2017-11-23T04:00:55.990Z,93.80
2017-11-23T04:03:24.155Z,93.50
2017-11-23T04:05:52.280Z,93.40
2017-11-23T04:08:20.430Z,93.30
2017-11-23T04:10:48.545Z,93.10
2017-11-23T04:13:16.698Z,92.80
2017-11-23T04:15:44.816Z,93.00
2017-11-23T04:18:12.974Z,92.70
2017-11-23T04:23:15.639Z,92.60
2017-11-23T04:25:43.766Z,92.40
2017-11-23T04:28:11.926Z,92.70
2017-11-23T04:30:40.042Z,92.80
2017-11-23T04:33:08.963Z,92.20
2017-11-23T04:35:37.082Z,92.20
2017-11-23T04:38:05.235Z,92.30
2017-11-23T04:40:33.360Z,91.70
2017-11-23T04:43:01.502Z,91.60
2017-11-23T04:45:29.627Z,91.80
2017-11-23T04:47:57.748Z,91.70
2017-11-23T04:50:25.894Z,91.30
2017-11-23T04:52:54.014Z,91.40
2017-11-23T04:55:22.157Z,91.60
2017-11-23T04:57:50.292Z,91.90
2017-11-23T05:00:18.444Z,91.40
2017-11-23T05:02:47.328Z,91.50
2017-11-23T05:05:15.470Z,91.40
2017-11-23T05:07:43.593Z,91.00
2017-11-23T05:10:11.753Z,91.50
2017-11-23T05:12:39.870Z,91.60
2017-11-23T05:15:08.018Z,91.20
2017-11-23T05:17:36.143Z,91.00
2017-11-23T05:20:04.292Z,91.50
2017-11-23T05:22:32.410Z,91.60
2017-11-23T05:25:00.562Z,91.50
2017-11-23T05:27:28.704Z,91.70
2017-11-23T05:29:56.855Z,91.40
2017-11-23T05:32:24.987Z,91.10
2017-11-23T05:34:53.142Z,91.10
2017-11-23T05:37:21.263Z,91.10
2017-11-23T05:39:49.386Z,90.90
2017-11-23T05:42:17.530Z,91.40
2017-11-23T05:44:45.659Z,91.50
2017-11-23T05:47:13.806Z,90.50
2017-11-23T05:49:41.935Z,90.90
2017-11-23T05:52:10.082Z,91.40
2017-11-23T05:54:38.208Z,90.50
2017-11-23T05:57:06.363Z,91.20
2017-11-23T05:59:34.482Z,91.20
2017-11-23T06:02:02.636Z,91.80
2017-11-23T06:04:30.765Z,91.60
2017-11-23T06:06:58.928Z,91.50
2017-11-23T06:09:27.047Z,91.30
2017-11-23T06:11:55.195Z,91.30
2017-11-23T06:14:23.326Z,91.10
2017-11-23T06:16:51.478Z,91.10
2017-11-23T06:19:19.604Z,91.20
2017-11-23T06:21:47.762Z,91.10
2017-11-23T06:24:15.883Z,91.20
2017-11-23T06:26:44.032Z,91.40
2017-11-23T06:29:12.160Z,91.60
2017-11-23T06:31:40.306Z,91.00
2017-11-23T06:34:08.553Z,90.80
2017-11-23T06:36:36.706Z,90.60
2017-11-23T06:39:04.852Z,90.90
2017-11-23T06:41:33.018Z,91.00
2017-11-23T06:44:01.414Z,90.70
2017-11-23T06:46:29.546Z,90.60
2017-11-23T06:48:57.702Z,90.70
2017-11-23T06:51:25.827Z,90.10
2017-11-23T06:53:53.978Z,90.00
2017-11-23T06:56:22.107Z,90.00
2017-11-23T06:58:51.038Z,89.90
2017-11-23T07:01:19.156Z,89.90
2017-11-23T07:03:47.309Z,90.20
2017-11-23T07:06:15.427Z,90.10
2017-11-23T07:08:43.579Z,89.90
2017-11-23T07:11:11.712Z,90.00
2017-11-23T07:13:39.855Z,89.80
2017-11-23T07:16:07.973Z,90.30
2017-11-23T07:18:36.124Z,90.10
2017-11-23T07:21:04.250Z,90.10
2017-11-23T07:23:32.405Z,89.60
2017-11-23T07:26:00.522Z,90.50
2017-11-23T07:28:29.462Z,90.00
2017-11-23T07:30:57.590Z,90.10
2017-11-23T07:33:25.754Z,90.30
2017-11-23T07:35:53.874Z,89.60
2017-11-23T07:38:22.018Z,89.70
2017-11-23T07:40:50.143Z,89.60
2017-11-23T07:43:18.300Z,89.60
2017-11-23T07:45:46.415Z,88.80
2017-11-23T07:48:14.689Z,89.20
2017-11-23T07:50:43.689Z,89.00
2017-11-23T07:53:11.842Z,89.00
2017-11-23T07:55:40.004Z,89.80
2017-11-23T07:58:08.126Z,89.20
2017-11-23T08:00:36.455Z,89.50
2017-11-23T08:03:04.579Z,90.00
2017-11-23T08:05:32.735Z,90.10
2017-11-23T08:08:00.862Z,89.30
2017-11-23T08:10:29.015Z,89.60
2017-11-23T08:12:57.133Z,90.10
2017-11-23T08:15:25.278Z,89.20
2017-11-23T08:17:53.407Z,88.00
2017-11-23T08:20:21.579Z,88.10
2017-11-23T08:22:49.695Z,87.90
2017-11-23T08:25:17.845Z,88.00
2017-11-23T08:27:45.970Z,88.10
2017-11-23T08:30:14.883Z,87.60
2017-11-23T08:32:43.018Z,87.50
2017-11-23T08:35:11.165Z,86.10
2017-11-23T08:37:39.291Z,87.80
2017-11-23T08:40:07.438Z,87.70
2017-11-23T08:42:35.553Z,88.70
2017-11-23T08:45:03.721Z,88.60
2017-11-23T08:47:32.603Z,88.10
2017-11-23T08:50:00.752Z,88.00
2017-11-23T08:52:33.727Z,89.00
2017-11-23T08:55:01.872Z,88.10
2017-11-23T08:57:29.992Z,88.20
2017-11-23T08:59:58.142Z,87.70
2017-11-23T09:02:26.270Z,88.30
2017-11-23T09:04:54.409Z,86.70
2017-11-23T09:07:22.535Z,87.00
2017-11-23T09:09:50.690Z,87.40
2017-11-23T09:12:21.618Z,86.40
2017-11-23T09:14:49.766Z,86.20
2017-11-23T09:17:17.890Z,84.60
2017-11-23T09:19:46.045Z,86.70
2017-11-23T09:22:14.165Z,85.20
2017-11-23T09:24:42.314Z,85.50
2017-11-23T09:27:10.434Z,84.20
2017-11-23T09:29:39.368Z,84.80
2017-11-23T09:32:07.499Z,84.70
2017-11-23T09:34:35.655Z,84.30
2017-11-23T09:37:03.777Z,83.60
2017-11-23T09:39:32.006Z,84.80
2017-11-23T09:42:00.131Z,84.60
2017-11-23T09:44:28.299Z,84.00
2017-11-23T09:46:56.476Z,84.90
2017-11-23T09:49:24.631Z,83.00
2017-11-23T09:51:53.527Z,82.80
2017-11-23T09:54:21.675Z,82.70
2017-11-23T09:56:49.804Z,82.40
2017-11-23T09:59:17.975Z,83.40
2017-11-23T10:01:46.099Z,83.40
2017-11-23T10:04:14.297Z,83.60
2017-11-23T10:06:42.417Z,82.70
2017-11-23T10:09:10.550Z,82.10
2017-11-23T10:11:38.697Z,81.00
2017-11-23T10:14:12.516Z,81.10
2017-11-23T10:16:40.667Z,82.90
2017-11-23T10:19:08.786Z,82.10
2017-11-23T10:21:37.246Z,79.20
2017-11-23T10:24:05.395Z,80.20
2017-11-23T10:26:33.554Z,80.20
2017-11-23T10:29:01.693Z,80.30
2017-11-23T10:31:29.848Z,79.50
2017-11-23T10:33:57.988Z,79.90
2017-11-23T10:36:26.151Z,78.70
2017-11-23T10:38:54.289Z,79.60
2017-11-23T10:41:22.739Z,80.00
2017-11-23T10:43:50.876Z,79.20
2017-11-23T10:46:19.052Z,80.40
2017-11-23T10:48:47.186Z,78.50
2017-11-23T10:51:15.359Z,78.00
2017-11-23T10:53:43.498Z,78.40
2017-11-23T10:56:12.456Z,79.50
2017-11-23T10:58:40.574Z,79.50
2017-11-23T11:01:08.746Z,77.70
2017-11-23T11:03:36.874Z,79.30
2017-11-23T11:06:05.047Z,79.00
2017-11-23T11:08:33.224Z,78.20
2017-11-23T11:11:01.402Z,78.30
2017-11-23T11:13:29.526Z,78.80
2017-11-23T11:15:57.679Z,79.20
2017-11-23T11:18:25.805Z,77.60
2017-11-23T11:20:53.986Z,78.50
2017-11-23T11:23:22.128Z,78.30
2017-11-23T11:25:50.272Z,78.20
2017-11-23T11:28:18.504Z,79.30
2017-11-23T11:30:46.695Z,78.30
2017-11-23T11:33:14.891Z,77.50
2017-11-23T11:35:43.042Z,77.70
2017-11-23T11:38:11.197Z,78.20
2017-11-23T11:40:39.338Z,78.20
2017-11-23T11:43:07.904Z,79.30
2017-11-23T11:45:36.801Z,79.50
2017-11-23T11:48:04.972Z,79.50
2017-11-23T11:50:33.863Z,77.50
2017-11-23T11:53:02.024Z,77.40
2017-11-23T11:55:31.027Z,78.00
2017-11-23T12:00:34.215Z,77.70
2017-11-23T12:03:02.374Z,78.20
2017-11-23T12:05:30.512Z,78.50
2017-11-23T12:07:58.678Z,77.80
2017-11-23T12:10:26.806Z,77.00
2017-11-23T12:12:55.744Z,78.80
2017-11-23T12:15:33.707Z,78.70
2017-11-23T12:18:14.459Z,77.00
2017-11-23T12:20:54.334Z,76.70
2017-11-23T12:23:34.330Z,76.40
2017-11-23T12:26:02.464Z,76.70
2017-11-23T12:28:42.410Z,76.30
2017-11-23T12:31:10.537Z,76.50
2017-11-23T12:33:38.692Z,76.70
2017-11-23T12:36:06.815Z,77.80
2017-11-23T12:38:34.968Z,77.80
2017-11-23T12:41:03.096Z,77.00
2017-11-23T12:43:31.252Z,76.90
2017-11-23T12:45:59.391Z,77.00
2017-11-23T12:48:27.547Z,76.10
2017-11-23T12:50:55.691Z,77.40
2017-11-23T12:53:23.846Z,77.00
2017-11-23T12:55:51.982Z,75.80
2017-11-23T12:58:20.141Z,76.30
2017-11-23T13:00:48.272Z,74.70
2017-11-23T13:03:16.436Z,75.20
2017-11-23T13:05:45.326Z,75.70
2017-11-23T13:08:13.482Z,75.60
2017-11-23T13:10:41.620Z,75.70
2017-11-23T13:13:09.783Z,74.80
2017-11-23T13:15:37.950Z,76.30
2017-11-23T13:18:06.075Z,76.00
2017-11-23T13:20:34.239Z,76.20
2017-11-23T13:23:02.363Z,76.40
2017-11-23T13:25:30.530Z,75.70
2017-11-23T13:27:58.658Z,75.20
2017-11-23T13:30:26.821Z,75.00
2017-11-23T13:32:54.947Z,74.70
2017-11-23T13:35:23.101Z,74.50
2017-11-23T13:37:51.231Z,74.70
2017-11-23T13:40:19.385Z,74.80
2017-11-23T13:42:47.507Z,74.80
2017-11-23T13:45:15.666Z,75.20
2017-11-23T13:47:43.798Z,75.70
2017-11-23T13:50:11.953Z,75.20
2017-11-23T13:52:40.079Z,75.30
2017-11-23T13:55:08.242Z,75.60
2017-11-23T13:57:36.379Z,75.50
2017-11-23T14:00:04.542Z,75.70
2017-11-23T14:02:32.666Z,75.50
2017-11-23T14:05:00.829Z,75.30
2017-11-23T14:07:28.984Z,75.00
2017-11-23T14:09:57.139Z,74.90
2017-11-23T14:12:25.274Z,75.60
2017-11-23T14:14:53.437Z,75.50
2017-11-23T14:17:21.569Z,75.20
2017-11-23T14:19:49.727Z,75.50
2017-11-23T14:22:17.880Z,75.80
2017-11-23T14:24:46.061Z,75.80
2017-11-23T14:27:14.207Z,76.10
2017-11-23T14:29:42.384Z,76.50
2017-11-23T14:32:10.524Z,76.70
2017-11-23T14:34:38.715Z,77.00
2017-11-23T14:37:06.858Z,77.20
2017-11-23T14:39:35.018Z,77.40
2017-11-23T14:42:03.906Z,77.40
2017-11-23T14:44:32.053Z,77.40
2017-11-23T14:47:00.210Z,77.50
2017-11-23T14:49:28.335Z,77.30
2017-11-23T14:51:56.485Z,77.60
2017-11-23T14:54:24.611Z,77.70
2017-11-23T14:56:52.999Z,77.90
2017-11-23T14:59:21.198Z,78.00
2017-11-23T15:01:49.359Z,78.40
2017-11-23T15:04:17.496Z,78.40
2017-11-23T15:06:45.958Z,78.50
2017-11-23T15:09:14.884Z,78.80
2017-11-23T15:11:43.056Z,78.70
2017-11-23T15:14:11.399Z,78.80
2017-11-23T15:16:40.434Z,79.20
2017-11-23T15:19:08.690Z,79.20
2017-11-23T15:21:36.842Z,79.30
2017-11-23T15:24:05.732Z,79.50
2017-11-23T15:26:33.900Z,79.40
2017-11-23T15:29:03.068Z,79.30
2017-11-23T15:31:31.223Z,79.30
2017-11-23T15:33:59.351Z,79.20
2017-11-23T15:36:28.271Z,79.00
2017-11-23T15:38:56.394Z,79.00
2017-11-23T15:41:24.551Z,79.30
2017-11-23T15:43:52.674Z,78.90
2017-11-23T15:46:20.849Z,79.00
2017-11-23T15:48:48.980Z,79.10
2017-11-23T15:51:17.103Z,79.20
2017-11-23T15:53:45.255Z,79.30
2017-11-23T15:56:13.387Z,79.40
2017-11-23T15:58:41.551Z,79.40
2017-11-23T16:01:09.691Z,79.50
2017-11-23T16:03:37.851Z,79.60
2017-11-23T16:06:06.012Z,79.60
2017-11-23T16:08:34.171Z,79.60
2017-11-23T16:11:02.322Z,79.80
2017-11-23T16:13:30.611Z,79.90
2017-11-23T16:15:58.736Z,80.20
2017-11-23T16:18:26.896Z,80.00
2017-11-23T16:20:55.035Z,80.20
2017-11-23T16:23:23.190Z,80.20
2017-11-23T16:25:51.338Z,80.30
2017-11-23T16:28:19.495Z,80.40
2017-11-23T16:30:47.615Z,80.60
2017-11-23T16:33:15.780Z,80.60
2017-11-23T16:35:43.910Z,80.80
2017-11-23T16:41:25.399Z,81.80
2017-11-23T16:43:54.474Z,82.30
2017-11-23T16:46:40.395Z,83.00
2017-11-23T16:49:14.864Z,83.90
2017-11-23T16:51:57.602Z,83.70
2017-11-23T16:54:31.489Z,83.90
2017-11-23T16:57:06.146Z,84.10
2017-11-23T16:59:40.110Z,84.80
2017-11-23T17:02:13.821Z,83.60
2017-11-23T17:04:47.545Z,83.70
2017-11-23T17:07:21.277Z,83.60
2017-11-23T17:09:53.121Z,83.50
2017-11-23T17:12:37.058Z,83.50
2017-11-23T17:15:20.931Z,83.60
2017-11-23T17:17:49.064Z,83.80
2017-11-23T17:20:17.231Z,83.60
2017-11-23T17:22:45.376Z,83.60
2017-11-23T17:25:13.540Z,83.60
2017-11-23T17:27:41.672Z,83.50
2017-11-23T17:30:09.835Z,83.80
2017-11-23T17:32:38.664Z,83.60
2017-11-23T17:35:06.840Z,83.80
2017-11-23T17:37:35.774Z,83.70
2017-11-23T17:40:04.792Z,83.70
2017-11-23T17:42:33.678Z,83.70
2017-11-23T17:45:01.981Z,83.40
2017-11-23T17:47:30.157Z,83.50
2017-11-23T17:49:58.412Z,83.30
2017-11-23T17:52:26.705Z,83.10
2017-11-23T17:54:55.308Z,83.30
2017-11-23T17:57:23.845Z,83.10
2017-11-23T17:59:52.144Z,83.00
2017-11-23T18:02:20.678Z,83.10
2017-11-23T18:04:49.537Z,83.90
2017-11-23T18:07:17.737Z,83.90
2017-11-23T18:09:45.915Z,84.80
2017-11-23T18:12:14.129Z,85.20
2017-11-23T18:14:43.005Z,85.50
2017-11-23T18:17:11.886Z,85.80
2017-11-23T18:19:40.062Z,85.60
2017-11-23T18:22:08.233Z,85.50
2017-11-23T18:24:36.412Z,85.80
2017-11-23T18:27:04.581Z,85.70
2017-11-23T18:29:33.108Z,85.60
2017-11-23T18:32:01.773Z,85.40
2017-11-23T18:34:31.138Z,85.20
2017-11-23T18:36:59.754Z,85.20
2017-11-23T18:39:28.543Z,84.90
2017-11-23T18:41:57.121Z,84.80
2017-11-23T18:44:25.815Z,84.90
2017-11-23T18:46:55.103Z,84.80
2017-11-23T18:49:24.804Z,84.70
2017-11-23T18:51:53.389Z,84.60
2017-11-23T18:54:22.077Z,84.60
2017-11-23T18:56:50.932Z,84.40
2017-11-23T18:59:19.621Z,84.70
2017-11-23T19:01:48.350Z,84.60
2017-11-23T19:04:17.016Z,84.50
2017-11-23T19:06:45.518Z,84.50
2017-11-23T19:09:14.140Z,84.50
2017-11-23T19:11:43.293Z,84.50
2017-11-23T19:14:11.936Z,84.50
2017-11-23T19:16:40.510Z,84.40
2017-11-23T19:19:08.844Z,84.50
2017-11-23T19:21:37.023Z,84.60
2017-11-23T19:24:05.161Z,84.50
2017-11-23T19:26:33.408Z,84.30
2017-11-23T19:29:01.567Z,84.20
2017-11-23T19:31:29.728Z,84.10
2017-11-23T19:33:57.888Z,83.80
2017-11-23T19:36:26.083Z,83.80
2017-11-23T19:38:54.217Z,83.90
2017-11-23T19:41:22.444Z,83.90
2017-11-23T19:43:51.728Z,83.90
2017-11-23T19:46:20.741Z,83.90
2017-11-23T19:48:50.229Z,84.00
2017-11-23T19:51:18.362Z,83.90
2017-11-23T19:53:46.514Z,83.80
2017-11-23T19:56:14.665Z,84.20
2017-11-23T19:58:43.599Z,84.70
2017-11-23T20:01:11.743Z,84.70
2017-11-23T20:03:39.910Z,85.00
2017-11-23T20:06:08.039Z,85.20
2017-11-23T20:08:36.239Z,85.30
2017-11-23T20:11:05.134Z,85.60
2017-11-23T20:13:34.062Z,85.40
2017-11-23T20:16:02.211Z,85.40
2017-11-23T20:18:31.130Z,84.20
2017-11-23T20:20:59.287Z,84.10
2017-11-23T20:23:27.452Z,83.00
2017-11-23T20:25:55.592Z,81.00
2017-11-23T20:28:23.762Z,79.80
2017-11-23T20:30:51.907Z,78.20
2017-11-23T20:33:20.088Z,77.70
2017-11-23T20:35:48.323Z,76.40
2017-11-23T20:38:16.515Z,75.70
2017-11-23T20:40:44.718Z,76.10
2017-11-23T20:43:12.884Z,76.20
2017-11-23T20:45:41.018Z,76.90
2017-11-23T20:48:09.215Z,76.50
2017-11-23T20:50:37.394Z,76.20
2017-11-23T20:53:05.542Z,75.40
2017-11-23T20:55:33.703Z,75.70
2017-11-23T20:58:01.835Z,75.80
2017-11-23T21:00:30.033Z,75.20
2017-11-23T21:02:58.158Z,75.90
2017-11-23T21:05:26.309Z,75.30
2017-11-23T21:07:54.450Z,75.20
2017-11-23T21:10:22.609Z,72.50
2017-11-23T21:12:50.738Z,73.10
2017-11-23T21:15:18.894Z,72.90
2017-11-23T21:17:47.045Z,72.20
2017-11-23T21:20:15.221Z,71.60
2017-11-23T21:22:43.360Z,70.20
2017-11-23T21:25:11.540Z,70.50
2017-11-23T21:27:39.684Z,69.20
2017-11-23T21:30:07.844Z,68.20
2017-11-23T21:32:36.011Z,66.50
2017-11-23T21:35:04.212Z,66.80
2017-11-23T21:37:32.347Z,65.30
2017-11-23T21:40:00.543Z,65.70
2017-11-23T21:42:28.691Z,65.40
2017-11-23T21:44:57.611Z,67.00
2017-11-23T21:47:25.745Z,66.90
2017-11-23T21:49:53.903Z,67.60
2017-11-23T21:52:22.029Z,67.90
2017-11-23T21:54:50.176Z,66.50
2017-11-23T21:57:18.315Z,66.30
2017-11-23T21:59:46.482Z,66.90
2017-11-23T22:02:14.603Z,66.90
2017-11-23T22:04:42.778Z,67.30
2017-11-23T22:07:10.926Z,67.90
2017-11-23T22:09:39.060Z,67.60
2017-11-23T22:12:07.256Z,67.50
2017-11-23T22:14:35.421Z,68.20
2017-11-23T22:17:03.574Z,68.50
2017-11-23T22:19:31.708Z,68.30
2017-11-23T22:21:59.871Z,68.70
2017-11-23T22:24:28.017Z,69.10
2017-11-23T22:26:56.173Z,69.20
2017-11-23T22:29:24.326Z,69.50
2017-11-23T22:31:52.475Z,70.00
2017-11-23T22:34:20.664Z,70.50
2017-11-23T22:36:49.589Z,71.00
2017-11-23T22:39:17.751Z,70.90
2017-11-23T22:41:45.908Z,71.30
2017-11-23T22:44:14.071Z,71.60
2017-11-23T22:46:42.223Z,72.00
2017-11-23T22:49:10.367Z,72.40
2017-11-23T22:51:38.563Z,72.60
2017-11-23T22:54:06.721Z,73.00
2017-11-23T22:56:34.901Z,73.40
2017-11-23T22:59:03.045Z,73.60
2017-11-23T23:01:31.257Z,73.90
2017-11-23T23:03:59.391Z,74.00
2017-11-23T23:06:27.566Z,74.60
2017-11-23T23:08:55.690Z,74.90
2017-11-23T23:11:23.867Z,75.40
2017-11-23T23:13:52.000Z,75.80
2017-11-23T23:16:20.156Z,75.80
2017-11-23T23:18:48.291Z,76.80
2017-11-23T23:21:16.448Z,76.90
2017-11-23T23:23:44.575Z,77.20
2017-11-23T23:26:12.732Z,77.60
2017-11-23T23:28:40.872Z,78.00
2017-11-23T23:31:09.026Z,78.30
2017-11-23T23:33:37.155Z,78.90
2017-11-23T23:36:05.303Z,79.20
2017-11-23T23:38:33.454Z,79.30
2017-11-23T23:41:01.581Z,79.70
2017-11-23T23:43:29.740Z,79.70
2017-11-23T23:45:58.622Z,80.20
2017-11-23T23:48:26.763Z,80.20
2017-11-23T23:50:54.888Z,80.40
2017-11-23T23:53:23.049Z,80.60
2017-11-23T23:55:51.176Z,80.50
2017-11-23T23:58:19.340Z,80.80
